Time;durP1;ratioP1;P1;durP2;ratioP2;P2;SDS_P1;SDS_P2;PMS_P1;PMS_P2;Temp;Humidity;BMP_temperature;BMP_pressure;BME280_temperature;BME280_humidity;BME280_pressure;Samples;Min_cycle;Max_cycle;Signal;HPM_P1;HPM_P2
2022/09/15 00:08:20;;;;;;;5.40;1.92;;;;;;;18.09;100.00;99294.78;21066090;28;20104;-72
2022/09/15 00:18:22;;;;;;;5.65;2.45;;;;;;;17.96;100.00;99286.75;21066250;28;20052;-71
2022/09/15 00:28:23;;;;;;;4.85;2.10;;;;;;;17.94;100.00;99284.22;21065718;28;20445;-73
2022/09/15 00:38:24;;;;;;;5.53;1.85;;;;;;;17.82;100.00;99269.13;21065330;28;20481;-73
2022/09/15 00:48:26;;;;;;;5.68;2.10;;;;;;;17.71;100.00;99276.84;21066493;28;20408;-73
2022/09/15 00:58:27;;;;;;;5.70;1.80;;;;;;;17.58;100.00;99270.63;21064926;28;20055;-71
2022/09/15 01:08:28;;;;;;;5.20;1.88;;;;;;;17.61;100.00;99276.56;21064481;28;20052;-72
2022/09/15 01:18:30;;;;;;;4.43;1.73;;;;;;;17.47;100.00;99257.22;21079446;28;20048;-71
2022/09/15 01:28:31;;;;;;;5.22;1.67;;;;;;;17.42;100.00;99254.84;21078908;28;20386;-72
2022/09/15 01:38:32;;;;;;;7.10;1.70;;;;;;;17.47;100.00;99259.84;21077670;28;20055;-72
2022/09/15 01:48:34;;;;;;;6.03;1.80;;;;;;;17.35;100.00;99251.75;21077331;28;20044;-72
2022/09/15 01:58:35;;;;;;;6.10;1.80;;;;;;;17.37;100.00;99251.66;21077089;28;20508;-72
2022/09/15 02:08:36;;;;;;;5.05;1.95;;;;;;;17.34;100.00;99246.53;21076508;28;20408;-72
2022/09/15 02:18:38;;;;;;;4.25;1.67;;;;;;;17.38;100.00;99254.19;21074835;28;20051;-73
2022/09/15 02:28:39;;;;;;;8.38;1.95;;;;;;;17.40;100.00;99256.75;21074560;28;20048;-72
2022/09/15 02:38:41;;;;;;;6.32;2.05;;;;;;;17.35;100.00;99257.03;21072827;28;20060;-72
2022/09/15 02:48:42;;;;;;;8.48;2.15;;;;;;;17.41;100.00;99258.44;21073153;28;20484;-72
2022/09/15 02:58:43;;;;;;;5.40;1.98;;;;;;;17.41;100.00;99259.28;21072497;28;20064;-72
2022/09/15 03:08:44;;;;;;;7.93;2.15;;;;;;;17.39;100.00;99263.84;21071193;28;20181;-72
2022/09/15 03:18:47;;;;;;;7.45;2.10;;;;;;;17.47;100.00;99268.66;21072805;28;20457;-73
2022/09/15 03:28:48;;;;;;;5.00;2.13;;;;;;;17.57;100.00;99279.50;21072857;28;20052;-73
2022/09/15 03:38:50;;;;;;;4.38;2.05;;;;;;;17.67;100.00;99270.88;21067611;28;20452;-73
2022/09/15 03:48:51;;;;;;;5.97;2.42;;;;;;;17.67;100.00;99275.34;21068162;28;20044;-73
2022/09/15 03:58:53;;;;;;;5.25;2.30;;;;;;;17.63;100.00;99274.69;21068170;28;20052;-73
2022/09/15 04:08:54;;;;;;;6.85;2.67;;;;;;;17.65;100.00;99270.16;21067019;28;20104;-72
2022/09/15 04:18:56;;;;;;;6.30;2.33;;;;;;;17.66;100.00;99274.50;21066557;28;20048;-72
2022/09/15 04:28:57;;;;;;;7.30;3.22;;;;;;;17.64;100.00;99259.66;21065779;28;20044;-72
2022/09/15 04:39:05;;;;;;;6.75;2.90;;;;;;;17.75;100.00;99264.31;21065015;28;20506;-71
2022/09/15 04:49:06;;;;;;;6.10;2.92;;;;;;;17.63;100.00;99264.13;21076105;28;20044;-71
2022/09/15 04:59:08;;;;;;;7.05;3.10;;;;;;;17.67;100.00;99262.94;21081365;28;20054;-72
2022/09/15 05:09:09;;;;;;;7.63;3.10;;;;;;;17.67;100.00;99270.88;21080516;28;20521;-72
2022/09/15 05:19:10;;;;;;;7.85;3.53;;;;;;;17.65;100.00;99266.66;21084221;28;20484;-73
2022/09/15 05:29:12;;;;;;;7.75;2.90;;;;;;;17.73;100.00;99275.00;21079289;28;20121;-72
2022/09/15 05:39:13;;;;;;;9.77;3.30;;;;;;;17.75;100.00;99275.75;21064612;28;20098;-73
2022/09/15 05:49:15;;;;;;;5.22;3.00;;;;;;;17.76;100.00;99287.19;20994420;28;20497;-73
2022/09/15 05:59:16;;;;;;;6.60;3.33;;;;;;;17.77;100.00;99299.47;20991423;28;20319;-72
2022/09/15 06:09:17;;;;;;;8.00;3.30;;;;;;;17.86;100.00;99298.88;20990824;28;20068;-72
2022/09/15 06:19:19;;;;;;;6.57;3.38;;;;;;;17.92;100.00;99290.59;20991321;28;20099;-73
2022/09/15 06:29:20;;;;;;;8.95;3.30;;;;;;;17.90;100.00;99303.91;20990985;28;20056;-73
2022/09/15 06:39:21;;;;;;;7.28;2.95;;;;;;;17.92;100.00;99320.56;21001734;28;20301;-75
2022/09/15 06:49:23;;;;;;;10.55;3.30;;;;;;;17.82;100.00;99352.97;21029655;28;20113;-79
2022/09/15 06:59:25;;;;;;;14.23;7.13;;;;;;;15.27;100.00;99389.38;21037472;28;20051;-79
2022/09/15 07:09:26;;;;;;;16.98;8.40;;;;;;;14.18;100.00;99410.47;21010553;22;20044;-82
2022/09/15 07:19:27;;;;;;;21.00;9.20;;;;;;;14.03;100.00;99419.91;20982749;28;20056;-81
2022/09/15 07:29:29;;;;;;;22.73;9.43;;;;;;;13.87;100.00;99442.59;20930032;28;20099;-81
2022/09/15 07:39:32;;;;;;;16.00;9.07;;;;;;;13.92;100.00;99435.34;20938941;28;20094;-82
2022/09/15 07:49:33;;;;;;;19.48;9.27;;;;;;;13.69;100.00;99456.53;21013749;22;20045;-82
2022/09/15 07:59:34;;;;;;;21.33;10.18;;;;;;;13.77;100.00;99472.84;21072690;28;20089;-75
2022/09/15 08:09:41;;;;;;;23.38;11.50;;;;;;;13.98;100.00;99481.56;21066852;28;20098;-77
2022/09/15 08:19:42;;;;;;;17.67;10.30;;;;;;;13.85;100.00;99490.03;21065664;28;20048;-74
2022/09/15 08:29:43;;;;;;;20.60;11.38;;;;;;;13.93;100.00;99497.56;21068409;28;20056;-76
2022/09/15 08:39:45;;;;;;;23.38;13.02;;;;;;;13.98;100.00;99526.31;21065938;28;20059;-73
2022/09/15 08:49:47;;;;;;;27.17;14.23;;;;;;;14.16;100.00;99545.72;21065686;28;20515;-75
2022/09/15 08:59:53;;;;;;;25.92;11.90;;;;;;;14.16;100.00;99556.25;21065628;28;20495;-77
2022/09/15 09:09:54;;;;;;;20.48;11.98;;;;;;;14.18;100.00;99583.34;21066734;28;20040;-77
2022/09/15 09:19:55;;;;;;;22.13;12.13;;;;;;;14.32;100.00;99570.44;21067279;28;20048;-76
2022/09/15 09:29:57;;;;;;;18.75;11.75;;;;;;;14.31;100.00;99574.00;21069045;28;20104;-79
2022/09/15 09:39:58;;;;;;;25.05;13.75;;;;;;;14.47;100.00;99605.78;21078725;28;20403;-76
2022/09/15 09:49:59;;;;;;;20.58;12.05;;;;;;;14.54;100.00;99571.22;21078978;28;20056;-77
2022/09/15 10:00:01;;;;;;;23.02;13.05;;;;;;;14.76;100.00;99591.34;21081861;28;20518;-76
2022/09/15 10:10:02;;;;;;;19.92;13.05;;;;;;;14.93;100.00;99583.50;21080269;28;20056;-73
2022/09/15 10:20:04;;;;;;;22.23;11.73;;;;;;;15.18;100.00;99577.06;21076071;28;20143;-72
2022/09/15 10:30:05;;;;;;;18.00;10.07;;;;;;;14.94;100.00;99582.56;21062721;28;20071;-71
2022/09/15 10:40:07;;;;;;;16.98;10.18;;;;;;;14.93;100.00;99595.84;21072267;28;20417;-71
2022/09/15 10:50:08;;;;;;;18.83;10.25;;;;;;;15.19;100.00;99589.31;21071388;28;20138;-71
2022/09/15 11:00:10;;;;;;;17.55;10.30;;;;;;;15.37;100.00;99599.00;21070544;28;20086;-70
2022/09/15 11:10:12;;;;;;;11.52;8.23;;;;;;;15.87;100.00;99593.91;21070723;28;20048;-71
2022/09/15 11:20:13;;;;;;;11.27;7.53;;;;;;;16.15;100.00;99596.00;21067666;28;20059;-72
2022/09/15 11:30:15;;;;;;;12.27;6.55;;;;;;;16.31;100.00;99606.63;21068207;28;20055;-71
2022/09/15 11:40:16;;;;;;;16.85;7.68;;;;;;;16.42;100.00;99622.75;21062789;28;20048;-70
2022/09/15 11:50:17;;;;;;;11.93;6.72;;;;;;;16.61;100.00;99633.22;21065812;28;20151;-69
2022/09/15 12:00:19;;;;;;;13.13;6.72;;;;;;;16.85;100.00;99646.97;21065221;28;20104;-70
2022/09/15 12:10:20;;;;;;;12.90;5.60;;;;;;;16.30;100.00;99659.53;21065112;28;20051;-71
2022/09/15 12:20:21;;;;;;;9.35;5.03;;;;;;;17.17;100.00;99660.25;21065073;28;20052;-72
2022/09/15 12:30:23;;;;;;;8.35;4.43;;;;;;;17.29;100.00;99662.19;20981195;28;20067;-72
2022/09/15 12:40:24;;;;;;;8.65;4.10;;;;;;;17.18;100.00;99657.50;21029013;28;20465;-71
2022/09/15 12:50:26;;;;;;;7.60;3.90;;;;;;;17.71;100.00;99658.09;21065452;28;20051;-72
2022/09/15 13:00:27;;;;;;;8.82;3.80;;;;;;;18.05;100.00;99654.38;21063831;28;20048;-71
2022/09/15 13:10:29;;;;;;;7.55;2.38;;;;;;;18.11;100.00;99651.41;21074555;28;20052;-73
2022/09/15 13:20:30;;;;;;;5.22;2.63;;;;;;;18.48;100.00;99645.69;21044647;28;20386;-73
2022/09/15 13:41:15;;;;;;;6.30;2.70;;;;;;;18.54;100.00;99648.84;21083816;28;20048;-81
2022/09/15 13:51:17;;;;;;;8.30;3.75;;;;;;;18.60;100.00;99637.00;21046408;22;20084;-79
2022/09/15 14:01:18;;;;;;;6.70;2.80;;;;;;;18.59;100.00;99628.19;21061910;22;20097;-74
2022/09/15 14:11:20;;;;;;;5.50;2.80;;;;;;;18.92;100.00;99617.34;21076487;28;20047;-72
2022/09/15 14:21:21;;;;;;;6.80;2.70;;;;;;;19.68;100.00;99611.56;21073576;28;20044;-73
2022/09/15 14:31:22;;;;;;;4.63;2.13;;;;;;;19.59;100.00;99606.81;21076534;28;20139;-70
2022/09/15 14:41:24;;;;;;;5.00;2.20;;;;;;;19.73;100.00;99620.09;21073933;28;20063;-71
2022/09/15 14:51:27;;;;;;;7.50;2.80;;;;;;;19.90;100.00;99604.84;21074062;28;20086;-70
2022/09/15 15:01:28;;;;;;;5.70;2.50;;;;;;;19.62;100.00;99611.97;21070452;28;20101;-70
2022/09/15 15:11:30;;;;;;;5.28;2.47;;;;;;;19.31;100.00;99609.59;21070274;28;20238;-70
2022/09/15 15:21:31;;;;;;;4.18;2.08;;;;;;;18.99;100.00;99617.78;21070531;28;20048;-70
2022/09/15 15:31:32;;;;;;;6.30;2.33;;;;;;;18.96;100.00;99618.81;21068891;28;20142;-71
2022/09/15 15:41:34;;;;;;;5.68;2.30;;;;;;;19.01;100.00;99620.34;21069493;28;20105;-71
2022/09/15 15:51:35;;;;;;;4.10;2.35;;;;;;;19.04;100.00;99626.31;21069215;28;20048;-71
2022/09/15 16:01:36;;;;;;;5.25;2.33;;;;;;;18.98;100.00;99634.66;21066890;28;20143;-71
2022/09/15 16:11:38;;;;;;;5.55;2.33;;;;;;;18.85;100.00;99628.41;21070729;28;20053;-70
2022/09/15 16:21:40;;;;;;;5.70;2.85;;;;;;;18.81;100.00;99632.19;21003388;28;20439;-71
2022/09/15 16:31:41;;;;;;;5.60;2.60;;;;;;;18.71;100.00;99651.34;21057989;28;20094;-71
2022/09/15 16:41:43;;;;;;;4.82;2.20;;;;;;;18.62;100.00;99661.63;21011287;28;20048;-69
2022/09/15 16:51:44;;;;;;;4.93;2.35;;;;;;;18.52;100.00;99650.72;20991121;28;20488;-69
2022/09/15 17:01:45;;;;;;;4.38;2.17;;;;;;;18.35;100.00;99662.34;20988957;28;20147;-69
2022/09/15 17:11:47;;;;;;;5.65;2.78;;;;;;;18.15;100.00;99666.13;21006073;28;20147;-69
2022/09/15 17:21:49;;;;;;;4.82;2.67;;;;;;;18.02;100.00;99673.13;21072906;28;20126;-69
2022/09/15 17:31:50;;;;;;;5.78;2.90;;;;;;;17.82;100.00;99662.81;21071766;28;20064;-69
2022/09/15 17:41:51;;;;;;;6.53;3.38;;;;;;;17.64;100.00;99656.75;21071422;28;20453;-69
2022/09/15 17:51:53;;;;;;;5.57;3.33;;;;;;;17.37;100.00;99664.44;21069962;28;20048;-69
2022/09/15 18:01:54;;;;;;;8.32;3.85;;;;;;;17.02;100.00;99676.94;21068445;28;20474;-68
2022/09/15 18:11:55;;;;;;;8.18;4.10;;;;;;;16.70;100.00;99674.19;21052739;28;20050;-68
2022/09/15 18:21:57;;;;;;;6.53;3.78;;;;;;;16.49;100.00;99685.88;21113147;28;20498;-69
2022/09/15 18:32:01;;;;;;;9.88;3.95;;;;;;;16.17;100.00;99693.63;21150188;28;20196;-70
2022/09/15 18:42:03;;;;;;;;;;;;;;;15.94;100.00;99707.13;21148246;28;20480;-70
2022/09/15 18:52:04;;;;;;;8.93;4.30;;;;;;;15.78;100.00;99725.50;21148232;28;20014;-69
2022/09/15 19:12:22;;;;;;;9.82;4.97;;;;;;;15.50;100.00;99749.66;13576194;26;20055;-78
2022/09/15 19:22:23;;;;;;;7.60;5.20;;;;;;;15.37;100.00;99755.47;21235206;27;20092;-77
2022/09/15 19:32:25;;;;;;;11.88;4.95;;;;;;;15.34;100.00;99763.56;21243039;27;20051;-78
2022/09/15 19:42:27;;;;;;;9.80;4.65;;;;;;;15.28;100.00;99761.19;21242802;27;20487;-76
2022/09/15 19:52:29;;;;;;;10.95;5.32;;;;;;;15.25;100.00;99753.41;21223895;27;20052;-76
2022/09/15 20:02:30;;;;;;;12.00;4.90;;;;;;;15.13;100.00;99765.34;21240269;27;20050;-76
2022/09/15 20:12:31;;;;;;;12.13;5.07;;;;;;;15.00;100.00;99753.66;21216498;27;20056;-77
2022/09/15 20:22:33;;;;;;;8.55;4.63;;;;;;;14.77;100.00;99766.97;21155520;28;20412;-77
2022/09/15 20:32:34;;;;;;;11.23;5.80;;;;;;;14.81;100.00;99773.84;21154786;28;20051;-77
2022/09/15 20:42:35;;;;;;;8.18;5.30;;;;;;;14.84;100.00;99786.88;21136603;28;20052;-76
2022/09/15 20:52:37;;;;;;;8.85;5.30;;;;;;;14.78;100.00;99784.50;21154626;28;20397;-76
2022/09/15 21:02:38;;;;;;;9.45;5.13;;;;;;;14.60;100.00;99794.03;21148867;28;20203;-77
2022/09/15 21:12:40;;;;;;;10.13;5.97;;;;;;;14.48;100.00;99782.25;21163878;28;20047;-77
2022/09/15 21:22:41;;;;;;;9.25;5.78;;;;;;;14.51;100.00;99791.78;21153600;28;20052;-77
2022/09/15 21:32:42;;;;;;;9.70;5.43;;;;;;;14.52;100.00;99799.66;21164119;28;20052;-77
2022/09/15 21:42:44;;;;;;;10.48;5.60;;;;;;;14.52;100.00;99807.53;21148943;28;20503;-77
2022/09/15 21:52:45;;;;;;;11.88;6.30;;;;;;;14.46;100.00;99806.88;21148741;28;20051;-77
2022/09/15 22:02:47;;;;;;;12.85;5.40;;;;;;;14.47;100.00;99811.22;21137171;28;20060;-76
2022/09/15 22:12:48;;;;;;;11.73;5.88;;;;;;;14.52;100.00;99804.06;21063133;28;20415;-77
2022/09/15 22:22:49;;;;;;;8.52;5.00;;;;;;;14.53;100.00;99817.16;21061806;28;20048;-77
2022/09/15 22:32:51;;;;;;;7.18;5.20;;;;;;;14.56;100.00;99824.06;21078486;28;20401;-77
2022/09/15 22:42:52;;;;;;;10.15;5.40;;;;;;;14.54;100.00;99832.03;21085772;28;20056;-77
2022/09/15 22:52:53;;;;;;;9.63;5.63;;;;;;;14.44;100.00;99848.25;21090352;28;20098;-77
2022/09/15 23:02:55;;;;;;;12.10;5.68;;;;;;;14.48;100.00;99832.28;21075497;28;20052;-77
2022/09/15 23:12:56;;;;;;;13.77;5.60;;;;;;;14.20;100.00;99839.56;21057408;28;20051;-77
2022/09/15 23:22:58;;;;;;;9.55;5.43;;;;;;;14.10;100.00;99839.06;21056899;28;20117;-77
2022/09/15 23:33:00;;;;;;;9.40;5.90;;;;;;;14.09;100.00;99851.38;21055523;28;20052;-77
2022/09/15 23:43:01;;;;;;;9.32;5.85;;;;;;;14.09;100.00;99848.72;21054867;28;20484;-77
2022/09/15 23:53:03;;;;;;;8.63;5.50;;;;;;;14.04;100.00;99842.78;21071716;28;20434;-77
